KTOA/TOA METAR and TAF weather

Enter ICAO airport designator
Station Type Date Time Source
KTOA METAR 2019/11/15 03:50 UTC NOAA

KTOA 150350Z 26007KT 10SM SCT015 BKN150 17/13 A3011


Station Type Date Time Source
KTOA Decoded METAR 2019/11/15 03:50 UTC NOAA

Torrance, Zamperini Field Airport, CA, United States (KTOA) 33-48N 118-20W
Nov 14, 2019 - 10:50 PM EST / 2019.11.15 0350 UTC
Wind: from the W (260 degrees) at 8 MPH (7 KT):0
Visibility: 10 mile(s):0
Sky conditions: mostly cloudy
Temperature: 62 F (17 C)
Dew Point: 55 F (13 C)
Relative Humidity: 77%
Pressure (altimeter): 30.11 in. Hg (1019 hPa)
ob: KTOA 150350Z 26007KT 10SM SCT015 BKN150 17/13 A3011
cycle: 4

Station Type Date Time Source
KTOA TAF UTC NOAA

Error!

Example: see airport list